Time;durP1;ratioP1;P1;durP2;ratioP2;P2;SDS_P1;SDS_P2;PMS_P1;PMS_P2;Temp;Humidity;BMP_temperature;BMP_pressure;BME280_temperature;BME280_humidity;BME280_pressure;Samples;Min_cycle;Max_cycle;Signal;HPM_P1;HPM_P2
2023/09/15 00:00:38;;;;;;;20.92;14.00;;;;;;;;;;4997657;28;20101;-75
2023/09/15 00:02:56;;;;;;;21.85;13.02;;;;;;;;;;4996985;28;20077;-76
2023/09/15 00:05:27;;;;;;;21.88;15.02;;;;;;;;;;5001556;28;20069;-76
2023/09/15 00:07:53;;;;;;;22.33;13.10;;;;;;;;;;5000964;28;20035;-76
2023/09/15 00:10:22;;;;;;;18.70;13.13;;;;;;;;;;4998579;28;20053;-76
2023/09/15 00:12:47;;;;;;;19.45;12.80;;;;;;;;;;4998601;28;20034;-75
2023/09/15 00:15:12;;;;;;;22.05;14.13;;;;;;;;;;4996823;28;20025;-76
2023/09/15 00:17:40;;;;;;;22.48;14.35;;;;;;;;;;4993803;28;20014;-75
2023/09/15 00:20:13;;;;;;;23.90;13.25;;;;;;;;;;4998261;28;20127;-76
2023/09/15 00:22:50;;;;;;;19.80;12.80;;;;;;;;;;5000344;28;20521;-76
2023/09/15 00:25:26;;;;;;;20.55;14.57;;;;;;;;;;4997844;28;20506;-75
2023/09/15 00:27:55;;;;;;;23.85;12.98;;;;;;;;;;5002525;28;20463;-76
2023/09/15 00:30:21;;;;;;;19.55;12.85;;;;;;;;;;5000191;28;20025;-75
2023/09/15 00:32:49;;;;;;;22.88;14.18;;;;;;;;;;5002174;28;20304;-76
2023/09/15 00:35:20;;;;;;;23.15;13.02;;;;;;;;;;5002182;28;20030;-75
2023/09/15 00:37:46;;;;;;;23.48;13.23;;;;;;;;;;4994825;28;20049;-75
2023/09/15 00:40:13;;;;;;;22.40;13.85;;;;;;;;;;4997382;28;20033;-76
2023/09/15 00:42:41;;;;;;;20.08;12.32;;;;;;;;;;4995095;28;20521;-76
2023/09/15 00:45:13;;;;;;;20.33;13.13;;;;;;;;;;4999344;28;20032;-75
2023/09/15 00:47:38;;;;;;;20.45;12.18;;;;;;;;;;4995652;28;20026;-75
2023/09/15 00:50:05;;;;;;;21.02;12.43;;;;;;;;;;4997911;28;20058;-75
2023/09/15 00:52:33;;;;;;;18.90;13.07;;;;;;;;;;5000395;28;20517;-75
2023/09/15 00:55:00;;;;;;;17.20;11.80;;;;;;;;;;5016108;28;20099;-76
2023/09/15 00:57:26;;;;;;;19.63;13.43;;;;;;;;;;4998623;28;20572;-76
2023/09/15 00:59:52;;;;;;;16.83;12.15;;;;;;;;;;5000851;28;20025;-76
2023/09/15 01:02:17;;;;;;;18.75;12.35;;;;;;;;;;4999433;28;20057;-76
2023/09/15 01:04:43;;;;;;;17.92;12.50;;;;;;;;;;4999069;28;20400;-75
2023/09/15 01:07:09;;;;;;;16.50;10.85;;;;;;;;;;4996865;28;20035;-75
2023/09/15 01:09:35;;;;;;;16.95;12.00;;;;;;;;;;4996712;28;20116;-75
2023/09/15 01:12:01;;;;;;;16.50;11.82;;;;;;;;;;4998430;28;20025;-75
2023/09/15 01:14:26;;;;;;;16.67;11.38;;;;;;;;;;4999509;28;20034;-75
2023/09/15 01:17:19;;;;;;;18.80;11.60;;;;;;;;;;5001365;28;20038;-76
2023/09/15 01:19:54;;;;;;;17.88;11.82;;;;;;;;;;4999799;28;20426;-76
2023/09/15 01:22:26;;;;;;;25.92;12.25;;;;;;;;;;5003450;28;20041;-77
2023/09/15 01:25:16;;;;;;;19.73;11.63;;;;;;;;;;5002884;28;20140;-75
2023/09/15 01:28:00;;;;;;;15.65;11.27;;;;;;;;;;5002648;28;20045;-75
2023/09/15 01:30:29;;;;;;;22.38;12.00;;;;;;;;;;4999866;28;20030;-75
2023/09/15 01:32:56;;;;;;;18.15;12.23;;;;;;;;;;5005405;28;20080;-75
2023/09/15 01:35:22;;;;;;;17.92;12.15;;;;;;;;;;5001382;28;20362;-75
2023/09/15 01:37:47;;;;;;;19.15;12.40;;;;;;;;;;5000494;28;20034;-75
2023/09/15 01:40:12;;;;;;;24.83;12.10;;;;;;;;;;5003013;28;20034;-75
2023/09/15 01:42:40;;;;;;;16.10;11.88;;;;;;;;;;5002444;28;20029;-76
2023/09/15 01:45:06;;;;;;;18.15;11.75;;;;;;;;;;4996193;28;20490;-77
2023/09/15 01:47:32;;;;;;;18.55;11.63;;;;;;;;;;5000379;28;20026;-75
2023/09/15 01:49:59;;;;;;;17.23;11.40;;;;;;;;;;5006037;28;20152;-75
2023/09/15 01:52:25;;;;;;;22.15;13.38;;;;;;;;;;5001795;28;20045;-77
2023/09/15 01:54:53;;;;;;;18.92;12.07;;;;;;;;;;5002277;28;20520;-76
2023/09/15 01:57:19;;;;;;;19.02;12.30;;;;;;;;;;5004799;28;20049;-75
2023/09/15 01:59:44;;;;;;;22.88;13.90;;;;;;;;;;5002790;28;20061;-76
2023/09/15 02:02:10;;;;;;;19.60;12.57;;;;;;;;;;5001409;28;20194;-75
2023/09/15 02:04:35;;;;;;;23.30;13.40;;;;;;;;;;4996424;28;20169;-75
2023/09/15 02:07:00;;;;;;;24.27;14.13;;;;;;;;;;5006479;28;20506;-76
2023/09/15 02:09:26;;;;;;;23.60;15.07;;;;;;;;;;5005040;28;20624;-76
2023/09/15 02:11:51;;;;;;;24.83;15.88;;;;;;;;;;5009973;28;20059;-76
2023/09/15 02:14:16;;;;;;;24.50;14.50;;;;;;;;;;5013436;28;20034;-76
2023/09/15 02:16:42;;;;;;;29.55;16.33;;;;;;;;;;5014464;28;20065;-78
2023/09/15 02:19:08;;;;;;;33.47;17.13;;;;;;;;;;5014599;28;20064;-77
2023/09/15 02:21:33;;;;;;;30.67;17.55;;;;;;;;;;5015954;28;20030;-76
2023/09/15 02:24:01;;;;;;;32.13;17.77;;;;;;;;;;5016920;28;20026;-78
2023/09/15 02:26:26;;;;;;;31.80;16.67;;;;;;;;;;5015670;28;20038;-77
2023/09/15 02:28:51;;;;;;;28.15;16.42;;;;;;;;;;5014467;28;20045;-78
2023/09/15 02:31:17;;;;;;;24.17;15.23;;;;;;;;;;5014706;28;20058;-77
2023/09/15 02:33:42;;;;;;;27.25;15.68;;;;;;;;;;5015797;28;20060;-78
2023/09/15 02:36:08;;;;;;;27.75;14.82;;;;;;;;;;5014454;28;20026;-76
2023/09/15 02:38:34;;;;;;;30.00;16.95;;;;;;;;;;5015236;28;20076;-77
2023/09/15 02:40:59;;;;;;;38.80;18.63;;;;;;;;;;5013953;28;20286;-78
2023/09/15 02:43:25;;;;;;;30.67;17.92;;;;;;;;;;5013690;28;20108;-77
2023/09/15 02:45:50;;;;;;;32.95;18.05;;;;;;;;;;5015053;28;20064;-76
2023/09/15 02:48:16;;;;;;;47.10;22.23;;;;;;;;;;5015326;28;20521;-77
2023/09/15 02:50:42;;;;;;;53.35;22.92;;;;;;;;;;5015921;28;20044;-78
2023/09/15 02:53:09;;;;;;;49.90;23.20;;;;;;;;;;5015063;28;20057;-76
2023/09/15 02:55:37;;;;;;;43.25;20.25;;;;;;;;;;5013456;28;20073;-77
2023/09/15 02:58:03;;;;;;;41.70;20.08;;;;;;;;;;5015240;28;20041;-75
2023/09/15 03:00:28;;;;;;;45.00;22.48;;;;;;;;;;5015041;28;20037;-77
2023/09/15 03:02:54;;;;;;;50.55;23.17;;;;;;;;;;5015331;28;20421;-77
2023/09/15 03:05:20;;;;;;;46.90;20.83;;;;;;;;;;5014520;28;20057;-75
2023/09/15 03:07:45;;;;;;;40.72;20.27;;;;;;;;;;5013955;28;20514;-77
2023/09/15 03:10:11;;;;;;;43.85;19.42;;;;;;;;;;5013569;28;20092;-77
2023/09/15 03:12:37;;;;;;;47.47;20.50;;;;;;;;;;5013444;28;20030;-79
2023/09/15 03:15:05;;;;;;;43.90;20.50;;;;;;;;;;5015385;28;20278;-76
2023/09/15 03:17:31;;;;;;;51.70;22.83;;;;;;;;;;5013572;28;20528;-77
2023/09/15 03:19:56;;;;;;;57.25;23.58;;;;;;;;;;5013653;28;20038;-76
2023/09/15 03:22:22;;;;;;;67.13;26.23;;;;;;;;;;5014010;28;20054;-77
2023/09/15 03:24:47;;;;;;;62.25;23.70;;;;;;;;;;5015427;28;20061;-76
2023/09/15 03:27:12;;;;;;;72.20;25.08;;;;;;;;;;5015382;28;20045;-77
2023/09/15 03:29:37;;;;;;;66.80;25.90;;;;;;;;;;5014100;28;20018;-77
2023/09/15 03:32:03;;;;;;;71.53;27.40;;;;;;;;;;5014223;28;20025;-76
2023/09/15 03:34:28;;;;;;;60.83;26.25;;;;;;;;;;5014380;28;20482;-74
2023/09/15 03:36:54;;;;;;;68.28;27.27;;;;;;;;;;5012526;28;20103;-76
2023/09/15 03:39:19;;;;;;;81.95;32.50;;;;;;;;;;5014832;28;20022;-77
2023/09/15 03:41:44;;;;;;;79.53;28.63;;;;;;;;;;5014647;28;20022;-77
2023/09/15 03:44:09;;;;;;;76.45;30.50;;;;;;;;;;5011755;28;20257;-77
2023/09/15 03:46:35;;;;;;;63.42;27.52;;;;;;;;;;4999988;28;20034;-77
2023/09/15 03:49:01;;;;;;;64.07;25.92;;;;;;;;;;5002004;28;20049;-76
2023/09/15 03:51:29;;;;;;;60.78;25.77;;;;;;;;;;5013751;28;20029;-77
2023/09/15 03:53:54;;;;;;;85.38;35.38;;;;;;;;;;5014356;28;20542;-77
2023/09/15 03:56:20;;;;;;;62.88;28.42;;;;;;;;;;5013424;28;20236;-76
2023/09/15 03:58:45;;;;;;;73.10;29.08;;;;;;;;;;4995592;28;20073;-76
2023/09/15 04:01:10;;;;;;;66.93;28.67;;;;;;;;;;4994308;28;20046;-77
2023/09/15 04:03:36;;;;;;;67.22;27.27;;;;;;;;;;4993698;28;20119;-77
2023/09/15 04:06:03;;;;;;;58.60;27.23;;;;;;;;;;5011913;28;20262;-76
2023/09/15 04:08:28;;;;;;;63.28;27.55;;;;;;;;;;5013855;28;20057;-77
2023/09/15 04:10:54;;;;;;;51.35;25.67;;;;;;;;;;5012066;28;20049;-77
2023/09/15 04:13:19;;;;;;;57.13;25.02;;;;;;;;;;5013273;28;20457;-77
2023/09/15 04:15:44;;;;;;;62.83;27.23;;;;;;;;;;5013832;28;20410;-76
2023/09/15 04:18:10;;;;;;;65.03;29.65;;;;;;;;;;5012782;28;20026;-77
2023/09/15 04:20:35;;;;;;;62.38;26.88;;;;;;;;;;5014233;28;20467;-77
2023/09/15 04:23:00;;;;;;;59.53;27.13;;;;;;;;;;5015188;28;20038;-77
2023/09/15 04:25:26;;;;;;;63.95;26.42;;;;;;;;;;5013592;28;20037;-77
2023/09/15 04:27:51;;;;;;;60.05;26.08;;;;;;;;;;5012996;28;20045;-76
2023/09/15 04:30:16;;;;;;;55.85;26.75;;;;;;;;;;5013658;28;20379;-77
2023/09/15 04:32:42;;;;;;;61.40;27.33;;;;;;;;;;5014533;28;20605;-77
2023/09/15 04:35:09;;;;;;;76.72;28.35;;;;;;;;;;5014825;28;20250;-77
2023/09/15 04:37:34;;;;;;;64.40;26.92;;;;;;;;;;5013624;28;20045;-76
2023/09/15 04:40:01;;;;;;;65.03;26.83;;;;;;;;;;5013092;28;20042;-77
2023/09/15 04:42:26;;;;;;;77.80;27.92;;;;;;;;;;5012690;28;20075;-76
2023/09/15 04:44:52;;;;;;;76.40;28.23;;;;;;;;;;5029172;28;20062;-78
2023/09/15 04:47:36;;;;;;;83.95;28.73;;;;;;;;;;5013707;28;20045;-77
2023/09/15 04:50:01;;;;;;;75.63;30.33;;;;;;;;;;5013212;28;20058;-77
2023/09/15 04:52:27;;;;;;;76.70;27.92;;;;;;;;;;4999756;28;20062;-77
2023/09/15 04:54:53;;;;;;;88.47;28.80;;;;;;;;;;4991969;28;20058;-77
2023/09/15 04:57:20;;;;;;;139.90;30.33;;;;;;;;;;4997932;28;20050;-78
2023/09/15 04:59:46;;;;;;;105.13;25.88;;;;;;;;;;4998526;28;20041;-77
2023/09/15 05:02:13;;;;;;;84.78;26.10;;;;;;;;;;5014199;28;20045;-77
2023/09/15 05:04:38;;;;;;;54.78;24.90;;;;;;;;;;5014623;28;20476;-77
2023/09/15 05:07:04;;;;;;;82.60;25.33;;;;;;;;;;5014459;28;20115;-76
2023/09/15 05:09:29;;;;;;;90.88;27.27;;;;;;;;;;5014915;28;20041;-78
2023/09/15 05:11:54;;;;;;;101.82;23.35;;;;;;;;;;5013916;28;20305;-76
2023/09/15 05:14:20;;;;;;;84.15;25.52;;;;;;;;;;5013505;28;20038;-76
2023/09/15 05:16:45;;;;;;;77.45;25.55;;;;;;;;;;5015131;28;20046;-77
2023/09/15 05:19:10;;;;;;;90.13;27.90;;;;;;;;;;5013896;28;20038;-77
2023/09/15 05:21:36;;;;;;;101.30;24.50;;;;;;;;;;5015138;28;20064;-77
2023/09/15 05:24:01;;;;;;;96.90;25.83;;;;;;;;;;5016171;28;20037;-77
2023/09/15 05:26:27;;;;;;;102.40;26.98;;;;;;;;;;5013783;28;20400;-77
2023/09/15 05:28:52;;;;;;;132.45;32.17;;;;;;;;;;5014701;28;20034;-77
2023/09/15 05:31:20;;;;;;;162.23;30.23;;;;;;;;;;5016366;28;20038;-78
2023/09/15 05:33:45;;;;;;;171.90;29.08;;;;;;;;;;5016127;28;20159;-77
2023/09/15 05:36:11;;;;;;;168.57;28.60;;;;;;;;;;5015078;28;20060;-76
2023/09/15 05:38:36;;;;;;;192.23;30.10;;;;;;;;;;5016345;28;20025;-77
2023/09/15 05:41:01;;;;;;;130.73;28.85;;;;;;;;;;5015630;28;20034;-77
2023/09/15 05:43:27;;;;;;;119.90;27.98;;;;;;;;;;5014874;28;20041;-75
2023/09/15 05:45:52;;;;;;;189.95;31.08;;;;;;;;;;5014847;28;20030;-78
2023/09/15 05:48:22;;;;;;;167.80;28.35;;;;;;;;;;5014871;28;20022;-78
2023/09/15 05:50:48;;;;;;;159.40;27.80;;;;;;;;;;5017297;28;20026;-77
2023/09/15 05:53:13;;;;;;;106.53;27.02;;;;;;;;;;5015840;28;20100;-76
2023/09/15 05:55:38;;;;;;;145.55;27.50;;;;;;;;;;5015650;28;20057;-78
2023/09/15 05:58:04;;;;;;;149.50;30.08;;;;;;;;;;5015761;28;20037;-77
2023/09/15 06:00:29;;;;;;;161.98;28.60;;;;;;;;;;5017342;28;20030;-79
2023/09/15 06:02:54;;;;;;;107.88;29.05;;;;;;;;;;5017489;28;20026;-78
2023/09/15 06:05:22;;;;;;;146.57;28.25;;;;;;;;;;5015220;28;20124;-78
2023/09/15 06:07:51;;;;;;;100.93;26.45;;;;;;;;;;5014336;28;20042;-78
2023/09/15 06:10:16;;;;;;;126.22;25.23;;;;;;;;;;5014843;28;20037;-77
2023/09/15 06:12:42;;;;;;;156.35;24.50;;;;;;;;;;5016049;28;20034;-78
2023/09/15 06:15:08;;;;;;;155.27;24.15;;;;;;;;;;5015925;28;20226;-77
2023/09/15 06:17:34;;;;;;;85.75;21.67;;;;;;;;;;5014167;28;20022;-77
2023/09/15 06:19:59;;;;;;;105.75;22.42;;;;;;;;;;5016229;28;20057;-78
2023/09/15 06:22:26;;;;;;;74.47;20.38;;;;;;;;;;5015160;28;20038;-77
2023/09/15 06:24:52;;;;;;;82.40;21.98;;;;;;;;;;5016573;28;20034;-78
2023/09/15 06:27:17;;;;;;;184.02;21.23;;;;;;;;;;5015067;28;20431;-78
2023/09/15 06:29:43;;;;;;;97.60;20.42;;;;;;;;;;5015864;28;20889;-77
2023/09/15 06:32:08;;;;;;;66.00;18.17;;;;;;;;;;5012825;28;20037;-77
2023/09/15 06:34:34;;;;;;;101.80;21.13;;;;;;;;;;5013485;28;20081;-76
2023/09/15 06:37:01;;;;;;;46.13;17.35;;;;;;;;;;5013364;28;20066;-77
2023/09/15 06:39:26;;;;;;;152.38;18.88;;;;;;;;;;5011856;28;20477;-77
2023/09/15 06:41:52;;;;;;;109.22;19.10;;;;;;;;;;5013644;28;20084;-75
2023/09/15 06:44:17;;;;;;;88.60;17.95;;;;;;;;;;5012099;28;20120;-77
2023/09/15 06:46:42;;;;;;;69.03;18.38;;;;;;;;;;5011776;28;20034;-77
2023/09/15 06:49:08;;;;;;;53.50;17.25;;;;;;;;;;5013561;28;20124;-77
2023/09/15 06:51:33;;;;;;;52.55;16.50;;;;;;;;;;5012947;28;20029;-77
2023/09/15 06:53:59;;;;;;;38.80;15.25;;;;;;;;;;5013998;28;20021;-74
2023/09/15 06:56:26;;;;;;;37.42;16.42;;;;;;;;;;5012606;28;20528;-77
2023/09/15 06:58:51;;;;;;;50.78;16.02;;;;;;;;;;5014379;28;20301;-77
2023/09/15 07:01:17;;;;;;;34.83;14.30;;;;;;;;;;5012952;28;20038;-78
2023/09/15 07:03:42;;;;;;;27.13;13.60;;;;;;;;;;5013099;28;20042;-76
2023/09/15 07:06:07;;;;;;;26.00;13.23;;;;;;;;;;5012912;28;20466;-76
2023/09/15 07:08:32;;;;;;;21.73;13.00;;;;;;;;;;5015541;28;20029;-77
2023/09/15 07:10:58;;;;;;;19.85;12.40;;;;;;;;;;5012558;28;20061;-76
2023/09/15 07:13:23;;;;;;;42.25;13.38;;;;;;;;;;5011980;28;20036;-77
2023/09/15 07:15:48;;;;;;;31.13;12.63;;;;;;;;;;5011402;28;20040;-76
2023/09/15 07:18:14;;;;;;;21.88;13.13;;;;;;;;;;5010788;28;20093;-77
2023/09/15 07:20:40;;;;;;;20.80;13.00;;;;;;;;;;5012266;28;20033;-77
2023/09/15 07:23:05;;;;;;;21.70;12.90;;;;;;;;;;5013152;28;20030;-77
2023/09/15 07:25:30;;;;;;;25.98;11.73;;;;;;;;;;5013954;28;20053;-77
2023/09/15 07:27:55;;;;;;;18.83;11.65;;;;;;;;;;5013438;28;20033;-78
2023/09/15 07:30:22;;;;;;;16.05;11.27;;;;;;;;;;5011970;28;20061;-77
2023/09/15 07:32:47;;;;;;;18.08;11.45;;;;;;;;;;5013646;28;20108;-78
2023/09/15 07:35:15;;;;;;;14.73;11.10;;;;;;;;;;5012647;28;20502;-77
2023/09/15 07:37:42;;;;;;;14.23;9.98;;;;;;;;;;5020770;28;20355;-76
2023/09/15 07:40:08;;;;;;;13.55;9.50;;;;;;;;;;5011936;28;20126;-77
2023/09/15 07:42:34;;;;;;;16.50;10.65;;;;;;;;;;5011923;28;20053;-76
2023/09/15 07:44:59;;;;;;;14.57;10.65;;;;;;;;;;5010857;28;20425;-77
2023/09/15 07:47:25;;;;;;;15.30;10.13;;;;;;;;;;5012186;28;20044;-79
2023/09/15 07:49:51;;;;;;;22.52;11.25;;;;;;;;;;5012970;28;20058;-77
2023/09/15 07:52:16;;;;;;;14.07;10.40;;;;;;;;;;5013305;28;20049;-79
2023/09/15 07:54:42;;;;;;;16.50;11.15;;;;;;;;;;5013109;28;20073;-79
2023/09/15 07:57:07;;;;;;;26.98;10.63;;;;;;;;;;5015094;28;20026;-78
2023/09/15 07:59:32;;;;;;;39.22;11.95;;;;;;;;;;5013805;28;20047;-77
2023/09/15 08:01:59;;;;;;;27.00;12.80;;;;;;;;;;5014133;28;20513;-78
2023/09/15 08:04:24;;;;;;;16.35;10.75;;;;;;;;;;5014341;28;20048;-76
2023/09/15 08:06:49;;;;;;;16.13;11.13;;;;;;;;;;5014460;28;20034;-78
2023/09/15 08:09:16;;;;;;;13.93;9.85;;;;;;;;;;5014335;28;20072;-78
2023/09/15 08:11:41;;;;;;;23.42;12.48;;;;;;;;;;5006932;28;20569;-76
2023/09/15 08:14:07;;;;;;;16.23;10.75;;;;;;;;;;4997196;28;20034;-76
2023/09/15 08:16:32;;;;;;;17.20;10.98;;;;;;;;;;4999838;28;20062;-76
2023/09/15 08:18:58;;;;;;;15.45;11.40;;;;;;;;;;4998342;28;20425;-76
2023/09/15 08:21:25;;;;;;;21.70;12.38;;;;;;;;;;5000522;28;20045;-76
2023/09/15 08:23:50;;;;;;;27.33;13.07;;;;;;;;;;4996987;28;20102;-76
2023/09/15 08:26:16;;;;;;;27.00;12.80;;;;;;;;;;5011004;28;20137;-76
2023/09/15 08:28:41;;;;;;;39.13;14.45;;;;;;;;;;5000267;28;20327;-76
2023/09/15 08:31:06;;;;;;;33.20;14.38;;;;;;;;;;4995823;28;20042;-76
2023/09/15 08:33:31;;;;;;;22.35;13.95;;;;;;;;;;4997979;28;20038;-76
2023/09/15 08:35:57;;;;;;;24.65;14.75;;;;;;;;;;4998597;28;20495;-76
2023/09/15 08:38:22;;;;;;;22.23;14.25;;;;;;;;;;4995947;28;20643;-77
2023/09/15 08:40:51;;;;;;;21.70;14.05;;;;;;;;;;4996300;28;20042;-76
2023/09/15 08:43:17;;;;;;;29.13;14.27;;;;;;;;;;5001324;28;20120;-77
2023/09/15 08:45:47;;;;;;;26.80;14.48;;;;;;;;;;4998968;28;20191;-76
2023/09/15 08:48:17;;;;;;;25.80;14.55;;;;;;;;;;4996634;28;20029;-76
2023/09/15 08:50:43;;;;;;;21.13;14.27;;;;;;;;;;5000222;28;20104;-76
2023/09/15 08:53:09;;;;;;;25.73;14.50;;;;;;;;;;5000348;28;20375;-76
2023/09/15 08:55:35;;;;;;;20.55;13.82;;;;;;;;;;4996107;28;20044;-77
2023/09/15 08:58:02;;;;;;;21.00;13.35;;;;;;;;;;4998638;28;20092;-77
2023/09/15 09:00:30;;;;;;;15.63;12.00;;;;;;;;;;4996731;28;20113;-76
2023/09/15 09:02:56;;;;;;;19.05;11.55;;;;;;;;;;4997921;28;20080;-76
2023/09/15 09:05:22;;;;;;;17.30;12.45;;;;;;;;;;4997717;28;20538;-76
2023/09/15 09:07:50;;;;;;;17.70;12.38;;;;;;;;;;4998489;28;20435;-76
2023/09/15 09:10:16;;;;;;;17.98;12.60;;;;;;;;;;4998262;28;20085;-76
2023/09/15 09:12:42;;;;;;;16.85;11.30;;;;;;;;;;4998947;28;20054;-76
2023/09/15 09:15:10;;;;;;;19.17;11.85;;;;;;;;;;4996835;28;20069;-76
2023/09/15 09:17:39;;;;;;;12.88;10.32;;;;;;;;;;4996841;28;20019;-77
2023/09/15 09:20:05;;;;;;;16.27;10.85;;;;;;;;;;5000987;28;20030;-76
2023/09/15 09:22:32;;;;;;;15.30;11.90;;;;;;;;;;5011358;28;20062;-76
2023/09/15 09:24:58;;;;;;;14.52;11.15;;;;;;;;;;5000430;28;20057;-76
2023/09/15 09:27:31;;;;;;;14.32;10.82;;;;;;;;;;4997896;28;20037;-77
2023/09/15 09:29:56;;;;;;;15.00;11.10;;;;;;;;;;4994768;28;20040;-77
2023/09/15 09:32:22;;;;;;;12.93;9.95;;;;;;;;;;4998545;28;20026;-77
2023/09/15 09:34:50;;;;;;;14.95;10.68;;;;;;;;;;5000129;28;20116;-77
2023/09/15 09:37:17;;;;;;;19.17;11.40;;;;;;;;;;5002640;28;20402;-76
2023/09/15 09:39:44;;;;;;;23.52;12.40;;;;;;;;;;5001763;28;20037;-76
2023/09/15 09:42:10;;;;;;;15.18;11.38;;;;;;;;;;4997866;28;20390;-76
2023/09/15 09:44:36;;;;;;;14.55;11.10;;;;;;;;;;5006149;28;20045;-76
2023/09/15 09:47:02;;;;;;;16.42;11.05;;;;;;;;;;5001009;28;20061;-76
2023/09/15 09:49:28;;;;;;;12.02;10.05;;;;;;;;;;5000124;28;20040;-77
2023/09/15 09:51:56;;;;;;;15.13;11.07;;;;;;;;;;4994531;28;20414;-76
2023/09/15 09:54:25;;;;;;;13.18;10.27;;;;;;;;;;4983917;28;20100;-77
2023/09/15 09:56:51;;;;;;;12.18;10.02;;;;;;;;;;4980472;28;20117;-77
2023/09/15 09:59:16;;;;;;;11.25;9.20;;;;;;;;;;4998327;28;20157;-77
2023/09/15 10:01:41;;;;;;;12.52;9.48;;;;;;;;;;5000560;28;20046;-77
2023/09/15 10:04:07;;;;;;;11.65;9.63;;;;;;;;;;5003255;28;20129;-77
2023/09/15 10:06:36;;;;;;;15.82;8.98;;;;;;;;;;5001510;28;20030;-77
2023/09/15 10:09:06;;;;;;;11.55;9.55;;;;;;;;;;5004336;28;20080;-77
2023/09/15 10:11:35;;;;;;;10.80;8.75;;;;;;;;;;4982185;28;20054;-77
2023/09/15 10:14:04;;;;;;;9.30;8.13;;;;;;;;;;4997133;28;20688;-77
2023/09/15 10:16:34;;;;;;;10.63;7.97;;;;;;;;;;5002210;28;20120;-76
2023/09/15 10:19:03;;;;;;;10.63;8.13;;;;;;;;;;4999177;28;20108;-77
2023/09/15 10:21:29;;;;;;;9.80;8.32;;;;;;;;;;5001146;28;20096;-77
2023/09/15 10:24:09;;;;;;;10.25;8.95;;;;;;;;;;4996883;28;20038;-77
2023/09/15 10:26:39;;;;;;;11.00;9.18;;;;;;;;;;4996370;28;20545;-76
2023/09/15 10:29:04;;;;;;;10.80;9.35;;;;;;;;;;5004607;28;20042;-76
2023/09/15 10:31:32;;;;;;;11.15;9.13;;;;;;;;;;4997517;28;20092;-76
2023/09/15 10:34:06;;;;;;;10.70;8.88;;;;;;;;;;5005103;28;20124;-76
2023/09/15 10:36:33;;;;;;;11.35;8.88;;;;;;;;;;5000445;28;20053;-76
2023/09/15 10:39:10;;;;;;;10.57;8.23;;;;;;;;;;4999493;28;20108;-77
2023/09/15 10:41:36;;;;;;;12.05;9.55;;;;;;;;;;5000865;28;20302;-76
2023/09/15 10:44:01;;;;;;;14.20;9.27;;;;;;;;;;5001115;28;20140;-76
2023/09/15 10:46:38;;;;;;;12.45;8.55;;;;;;;;;;5000642;28;20023;-76
2023/09/15 10:49:13;;;;;;;13.43;9.45;;;;;;;;;;5001464;28;20038;-77
2023/09/15 10:51:50;;;;;;;11.55;9.35;;;;;;;;;;5002185;28;20061;-77
2023/09/15 10:54:16;;;;;;;11.25;8.57;;;;;;;;;;5003007;28;20050;-76
2023/09/15 10:56:42;;;;;;;13.57;8.52;;;;;;;;;;5002769;28;20469;-77
2023/09/15 10:59:07;;;;;;;10.65;8.15;;;;;;;;;;4996173;28;20041;-77
2023/09/15 11:01:33;;;;;;;9.45;8.15;;;;;;;;;;4998444;28;20026;-77
2023/09/15 11:04:02;;;;;;;9.88;8.23;;;;;;;;;;4997754;28;20048;-77
2023/09/15 11:06:29;;;;;;;10.48;7.82;;;;;;;;;;4996318;28;20035;-77
2023/09/15 11:08:56;;;;;;;11.77;8.45;;;;;;;;;;5004316;28;20081;-76
2023/09/15 11:11:21;;;;;;;10.60;8.57;;;;;;;;;;4994982;28;20057;-77
2023/09/15 11:13:47;;;;;;;9.65;8.05;;;;;;;;;;5002809;28;20050;-77
2023/09/15 11:16:12;;;;;;;8.63;7.70;;;;;;;;;;4998216;28;20490;-77
2023/09/15 11:18:38;;;;;;;8.65;7.72;;;;;;;;;;4999038;28;20031;-77
2023/09/15 11:21:05;;;;;;;8.13;6.78;;;;;;;;;;5004102;28;20029;-76
2023/09/15 11:23:31;;;;;;;10.07;7.72;;;;;;;;;;5001680;28;20445;-76
2023/09/15 11:26:04;;;;;;;10.85;7.28;;;;;;;;;;4997967;28;20042;-76
2023/09/15 11:28:33;;;;;;;8.63;7.27;;;;;;;;;;5016592;28;20031;-76
2023/09/15 11:31:00;;;;;;;8.70;6.95;;;;;;;;;;4999530;28;20081;-76
2023/09/15 11:33:25;;;;;;;9.20;7.45;;;;;;;;;;5001935;28;20110;-76
2023/09/15 11:35:51;;;;;;;8.90;6.80;;;;;;;;;;5003429;28;20113;-77
2023/09/15 11:38:16;;;;;;;9.95;7.38;;;;;;;;;;4999343;28;20054;-77
2023/09/15 11:40:48;;;;;;;11.63;7.75;;;;;;;;;;4999930;28;20060;-77
2023/09/15 11:43:14;;;;;;;9.52;8.52;;;;;;;;;;5001666;28;20026;-77
2023/09/15 11:45:41;;;;;;;12.35;8.23;;;;;;;;;;5001647;28;20030;-76
2023/09/15 11:48:07;;;;;;;9.27;7.95;;;;;;;;;;5001033;28;20339;-75
2023/09/15 11:50:33;;;;;;;10.63;8.20;;;;;;;;;;5012248;28;20030;-76
2023/09/15 11:52:59;;;;;;;11.15;6.63;;;;;;;;;;5003174;28;20379;-76
2023/09/15 11:55:25;;;;;;;8.82;7.75;;;;;;;;;;4996382;28;20459;-76
2023/09/15 11:57:51;;;;;;;8.68;7.43;;;;;;;;;;4998116;28;20030;-76
2023/09/15 12:00:21;;;;;;;7.78;6.95;;;;;;;;;;4999235;28;20032;-76
2023/09/15 12:02:48;;;;;;;11.02;7.55;;;;;;;;;;4999000;28;20045;-76
2023/09/15 12:05:15;;;;;;;16.27;7.78;;;;;;;;;;4993740;28;20035;-76
2023/09/15 12:07:45;;;;;;;10.70;7.40;;;;;;;;;;4996159;28;20041;-76
2023/09/15 12:10:14;;;;;;;9.07;7.32;;;;;;;;;;4997823;28;20080;-76
2023/09/15 12:12:40;;;;;;;8.95;7.30;;;;;;;;;;4999408;28;20038;-76
2023/09/15 12:15:08;;;;;;;8.05;7.25;;;;;;;;;;4998249;28;20082;-76
2023/09/15 12:17:36;;;;;;;8.15;6.82;;;;;;;;;;4974808;28;20066;-77
2023/09/15 12:20:05;;;;;;;6.78;6.07;;;;;;;;;;4976034;28;20077;-76
2023/09/15 12:22:38;;;;;;;7.05;5.70;;;;;;;;;;4985186;28;20355;-76
2023/09/15 12:25:04;;;;;;;6.57;5.88;;;;;;;;;;4992756;28;20113;-77
2023/09/15 12:27:29;;;;;;;5.72;5.20;;;;;;;;;;4996524;28;20426;-76
2023/09/15 12:30:03;;;;;;;5.70;5.10;;;;;;;;;;4998362;28;20033;-77
2023/09/15 12:32:31;;;;;;;7.88;6.22;;;;;;;;;;4999742;28;20425;-76
2023/09/15 12:34:57;;;;;;;6.68;5.75;;;;;;;;;;4998629;28;20054;-76
2023/09/15 12:37:26;;;;;;;6.93;5.60;;;;;;;;;;4999151;28;20058;-77
2023/09/15 12:39:51;;;;;;;7.78;5.78;;;;;;;;;;5000422;28;20414;-76
2023/09/15 12:42:16;;;;;;;6.35;5.75;;;;;;;;;;4998783;28;20037;-76
2023/09/15 12:44:42;;;;;;;5.93;5.32;;;;;;;;;;5000538;28;20105;-77
2023/09/15 12:47:07;;;;;;;6.55;5.95;;;;;;;;;;4999557;28;20030;-77
2023/09/15 12:49:33;;;;;;;7.85;6.35;;;;;;;;;;4999198;28;20034;-77
2023/09/15 12:51:58;;;;;;;6.53;5.93;;;;;;;;;;5001768;28;20041;-76
2023/09/15 12:54:24;;;;;;;6.88;6.28;;;;;;;;;;4998209;28;20041;-76
2023/09/15 12:56:56;;;;;;;6.95;6.07;;;;;;;;;;4998357;28;20148;-77
2023/09/15 12:59:26;;;;;;;6.15;5.55;;;;;;;;;;4997838;28;20569;-77
2023/09/15 13:01:52;;;;;;;6.25;5.65;;;;;;;;;;5000077;28;20038;-77
2023/09/15 13:04:17;;;;;;;6.30;5.70;;;;;;;;;;4998106;28;20030;-77
2023/09/15 13:06:42;;;;;;;6.63;5.88;;;;;;;;;;5002184;28;20034;-77
2023/09/15 13:09:09;;;;;;;6.25;5.68;;;;;;;;;;4994056;28;20512;-77
2023/09/15 13:11:36;;;;;;;9.35;6.15;;;;;;;;;;5001968;28;20026;-78
2023/09/15 13:14:02;;;;;;;7.20;6.32;;;;;;;;;;5000206;28;20091;-77
2023/09/15 13:16:27;;;;;;;7.38;6.68;;;;;;;;;;4990916;28;20096;-77
2023/09/15 13:18:53;;;;;;;6.47;5.88;;;;;;;;;;5004841;28;20526;-77
2023/09/15 13:21:18;;;;;;;6.40;5.70;;;;;;;;;;4997471;28;21300;-76
2023/09/15 13:23:43;;;;;;;8.27;6.05;;;;;;;;;;5006652;28;20050;-77
2023/09/15 13:26:10;;;;;;;7.25;6.55;;;;;;;;;;5002459;28;20076;-77
2023/09/15 13:28:36;;;;;;;8.68;5.93;;;;;;;;;;5005183;28;20040;-77
2023/09/15 13:31:02;;;;;;;6.50;5.90;;;;;;;;;;5008561;28;20030;-77
2023/09/15 13:33:28;;;;;;;8.20;6.68;;;;;;;;;;5002260;28;20041;-78
2023/09/15 13:35:53;;;;;;;6.22;5.72;;;;;;;;;;4997268;28;20163;-77
2023/09/15 13:38:22;;;;;;;6.28;5.68;;;;;;;;;;5001979;28;20041;-77
2023/09/15 13:40:47;;;;;;;6.50;5.90;;;;;;;;;;5005703;28;20501;-77
2023/09/15 13:43:12;;;;;;;6.50;5.90;;;;;;;;;;5003651;28;20053;-77
2023/09/15 13:45:41;;;;;;;6.85;6.22;;;;;;;;;;5000786;28;20368;-77
2023/09/15 13:48:06;;;;;;;6.38;5.78;;;;;;;;;;5004244;28;21443;-76
2023/09/15 13:50:31;;;;;;;7.80;7.00;;;;;;;;;;5002307;28;20037;-78
2023/09/15 13:52:57;;;;;;;8.15;6.18;;;;;;;;;;5004270;28;20034;-77
2023/09/15 13:55:22;;;;;;;6.05;5.50;;;;;;;;;;5000395;28;20030;-77
2023/09/15 13:57:48;;;;;;;6.63;5.45;;;;;;;;;;4999177;28;20502;-77
2023/09/15 14:00:14;;;;;;;6.57;5.97;;;;;;;;;;4993539;28;20029;-77
2023/09/15 14:02:41;;;;;;;8.27;6.32;;;;;;;;;;5001131;28;20109;-77
2023/09/15 14:05:07;;;;;;;7.03;5.60;;;;;;;;;;5003231;28;20029;-77
2023/09/15 14:07:32;;;;;;;6.18;5.57;;;;;;;;;;4998440;28;20039;-77
2023/09/15 14:09:58;;;;;;;7.10;6.40;;;;;;;;;;5001389;28;20034;-78
2023/09/15 14:12:23;;;;;;;7.28;6.57;;;;;;;;;;4995635;28;20026;-78
2023/09/15 14:14:49;;;;;;;7.40;6.68;;;;;;;;;;5004877;28;21146;-75
2023/09/15 14:17:14;;;;;;;8.27;6.90;;;;;;;;;;4999355;28;20122;-78
2023/09/15 14:19:39;;;;;;;7.28;6.22;;;;;;;;;;4999953;28;20065;-75